Time;durP1;ratioP1;P1;durP2;ratioP2;P2;SDS_P1;SDS_P2;PMS_P1;PMS_P2;Temp;Humidity;BMP_temperature;BMP_pressure;BME280_temperature;BME280_humidity;BME280_pressure;Samples;Min_cycle;Max_cycle;Signal;HPM_P1;HPM_P2
2021/05/31 00:00:04;;;;;;;2.83;2.20;;;;;;;;;;346530;28;1087;-63
2021/05/31 00:00:17;;;;;;;2.85;2.30;;;;;;;;;;345544;28;18017;-62
2021/05/31 00:00:29;;;;;;;3.05;2.28;;;;;;;;;;346361;28;1129;-63
2021/05/31 00:00:41;;;;;;;3.72;2.22;;;;;;;;;;346372;28;1102;-62
2021/05/31 00:00:53;;;;;;;4.10;2.30;;;;;;;;;;346567;28;1053;-64
2021/05/31 00:01:06;;;;;;;3.50;2.28;;;;;;;;;;346443;28;1083;-62
2021/05/31 00:01:18;;;;;;;2.95;2.17;;;;;;;;;;346425;28;1105;-66
2021/05/31 00:01:30;;;;;;;2.80;1.85;;;;;;;;;;346468;28;1041;-64
2021/05/31 00:01:42;;;;;;;2.85;1.98;;;;;;;;;;346413;28;1920;-66
2021/05/31 00:01:54;;;;;;;2.55;2.10;;;;;;;;;;346543;28;1030;-65
2021/05/31 00:02:06;;;;;;;3.97;2.33;;;;;;;;;;346519;28;1132;-62
2021/05/31 00:02:18;;;;;;;3.90;2.20;;;;;;;;;;346418;28;1251;-62
2021/05/31 00:02:30;;;;;;;3.65;2.25;;;;;;;;;;346367;28;1933;-64
2021/05/31 00:02:46;;;;;;;3.33;2.20;;;;;;;;;;344423;28;1649;-64
2021/05/31 00:02:58;;;;;;;3.20;2.25;;;;;;;;;;342445;28;40891;-66
2021/05/31 00:03:09;;;;;;;3.38;2.30;;;;;;;;;;343879;28;1090;-61
2021/05/31 00:03:21;;;;;;;2.92;2.28;;;;;;;;;;343593;28;1157;-66
2021/05/31 00:03:34;;;;;;;4.32;2.20;;;;;;;;;;343560;28;1164;-69
2021/05/31 00:03:46;;;;;;;5.00;2.28;;;;;;;;;;343612;28;1070;-62
2021/05/31 00:03:58;;;;;;;4.93;2.22;;;;;;;;;;343662;28;1169;-69
2021/05/31 00:04:10;;;;;;;4.07;2.40;;;;;;;;;;343508;28;1316;-62
2021/05/31 00:04:23;;;;;;;3.30;2.25;;;;;;;;;;343661;28;1228;-65
2021/05/31 00:04:35;;;;;;;3.45;2.30;;;;;;;;;;343853;28;1708;-62
2021/05/31 00:04:47;;;;;;;3.42;2.30;;;;;;;;;;343729;28;1146;-69
2021/05/31 00:04:59;;;;;;;3.08;2.17;;;;;;;;;;343594;28;1240;-61
2021/05/31 00:05:12;;;;;;;3.35;2.10;;;;;;;;;;343852;28;1105;-63
2021/05/31 00:05:25;;;;;;;3.92;2.03;;;;;;;;;;343730;28;1062;-67
2021/05/31 00:05:38;;;;;;;3.42;2.20;;;;;;;;;;343060;28;16874;-64
2021/05/31 00:05:50;;;;;;;3.30;2.20;;;;;;;;;;343429;28;1062;-65
2021/05/31 00:06:02;;;;;;;3.58;2.20;;;;;;;;;;344738;28;1086;-62
2021/05/31 00:06:14;;;;;;;2.95;2.20;;;;;;;;;;344968;28;1099;-66
2021/05/31 00:06:26;;;;;;;3.38;2.30;;;;;;;;;;345086;28;1113;-65
2021/05/31 00:06:48;;;;;;;3.53;2.30;;;;;;;;;;344935;28;1066;-64
2021/05/31 00:07:15;;;;;;;3.50;2.17;;;;;;;;;;342848;28;63127;-62
2021/05/31 00:07:27;;;;;;;3.85;2.17;;;;;;;;;;343831;28;61342;-66
2021/05/31 00:07:39;;;;;;;3.85;2.28;;;;;;;;;;346263;28;1261;-62
2021/05/31 00:07:52;;;;;;;2.50;2.17;;;;;;;;;;344808;28;1071;-64
2021/05/31 00:08:04;;;;;;;2.53;2.00;;;;;;;;;;344346;28;17026;-66
2021/05/31 00:08:16;;;;;;;3.25;2.03;;;;;;;;;;344868;28;1666;-70
2021/05/31 00:08:28;;;;;;;3.63;2.10;;;;;;;;;;344837;28;1081;-65
2021/05/31 00:08:40;;;;;;;3.10;2.10;;;;;;;;;;344920;28;1137;-62
2021/05/31 00:08:52;;;;;;;3.70;2.10;;;;;;;;;;344869;28;1050;-61
2021/05/31 00:09:05;;;;;;;3.35;2.10;;;;;;;;;;344955;28;1205;-66
2021/05/31 00:09:17;;;;;;;3.45;2.17;;;;;;;;;;344886;28;1162;-62
2021/05/31 00:09:30;;;;;;;3.45;2.28;;;;;;;;;;343707;28;987;-66
2021/05/31 00:09:43;;;;;;;3.65;2.20;;;;;;;;;;342055;28;1075;-66
2021/05/31 00:09:56;;;;;;;4.07;2.28;;;;;;;;;;343380;28;1129;-69
2021/05/31 00:10:08;;;;;;;4.72;2.20;;;;;;;;;;342481;28;1936;-65
2021/05/31 00:10:22;;;;;;;4.13;2.17;;;;;;;;;;342189;28;1005;-62
2021/05/31 00:10:34;;;;;;;3.22;2.20;;;;;;;;;;342165;28;1920;-67
2021/05/31 00:10:46;;;;;;;2.80;2.10;;;;;;;;;;342193;28;1193;-64
2021/05/31 00:10:58;;;;;;;3.08;2.20;;;;;;;;;;342304;28;1159;-68
2021/05/31 00:11:10;;;;;;;3.05;2.10;;;;;;;;;;342373;28;975;-62
2021/05/31 00:11:22;;;;;;;4.40;2.10;;;;;;;;;;342171;28;1022;-62
2021/05/31 00:11:35;;;;;;;3.67;2.10;;;;;;;;;;343202;28;1202;-65
2021/05/31 00:11:47;;;;;;;4.63;2.17;;;;;;;;;;344697;28;1157;-62
2021/05/31 00:12:00;;;;;;;5.20;2.25;;;;;;;;;;345185;28;974;-63
2021/05/31 00:12:14;;;;;;;4.13;2.20;;;;;;;;;;346194;28;1281;-66
2021/05/31 00:12:26;;;;;;;3.92;2.17;;;;;;;;;;345692;28;17089;-66
2021/05/31 00:12:38;;;;;;;2.88;2.35;;;;;;;;;;346517;28;1149;-62
2021/05/31 00:12:50;;;;;;;2.55;2.28;;;;;;;;;;346349;28;1071;-63
2021/05/31 00:13:03;;;;;;;2.90;2.10;;;;;;;;;;346465;28;1294;-67
2021/05/31 00:13:16;;;;;;;3.55;2.10;;;;;;;;;;345772;28;1763;-66
2021/05/31 00:13:28;;;;;;;3.58;2.20;;;;;;;;;;345508;28;1923;-63
2021/05/31 00:13:40;;;;;;;5.15;2.20;;;;;;;;;;346526;28;1110;-63
2021/05/31 00:13:52;;;;;;;5.28;2.20;;;;;;;;;;346291;28;1098;-61
2021/05/31 00:14:05;;;;;;;5.53;2.30;;;;;;;;;;346435;28;1275;-66
2021/05/31 00:14:18;;;;;;;3.30;2.20;;;;;;;;;;346440;28;1070;-61
2021/05/31 00:14:30;;;;;;;3.05;2.10;;;;;;;;;;346386;28;1181;-63
2021/05/31 00:14:43;;;;;;;3.05;2.20;;;;;;;;;;346371;28;1082;-65
2021/05/31 00:14:56;;;;;;;4.38;2.40;;;;;;;;;;346507;28;990;-63
2021/05/31 00:15:08;;;;;;;5.32;2.40;;;;;;;;;;345057;28;1189;-64
2021/05/31 00:15:21;;;;;;;3.85;2.22;;;;;;;;;;344779;28;1152;-63
2021/05/31 00:15:33;;;;;;;3.83;2.17;;;;;;;;;;345091;28;1146;-64
2021/05/31 00:15:45;;;;;;;3.25;2.10;;;;;;;;;;345019;28;1046;-69
2021/05/31 00:15:58;;;;;;;3.10;2.10;;;;;;;;;;344924;28;1090;-68
2021/05/31 00:16:10;;;;;;;3.08;2.15;;;;;;;;;;344850;28;1120;-63
2021/05/31 00:16:22;;;;;;;3.33;2.17;;;;;;;;;;344830;28;1104;-66
2021/05/31 00:16:36;;;;;;;3.78;2.20;;;;;;;;;;345168;28;1172;-62
2021/05/31 00:16:49;;;;;;;4.13;2.20;;;;;;;;;;344944;28;1025;-62
2021/05/31 00:17:01;;;;;;;3.35;2.30;;;;;;;;;;344404;28;16698;-63
2021/05/31 00:17:14;;;;;;;3.30;2.35;;;;;;;;;;346363;28;1057;-62
2021/05/31 00:17:26;;;;;;;3.00;2.20;;;;;;;;;;346484;28;1103;-62
2021/05/31 00:17:39;;;;;;;4.28;2.17;;;;;;;;;;346415;28;1089;-63
2021/05/31 00:17:51;;;;;;;4.78;2.40;;;;;;;;;;346401;28;1153;-66
2021/05/31 00:18:03;;;;;;;3.38;2.28;;;;;;;;;;344989;28;1173;-63
2021/05/31 00:18:16;;;;;;;3.40;2.15;;;;;;;;;;345083;28;1165;-62
2021/05/31 00:18:28;;;;;;;3.72;2.20;;;;;;;;;;344876;28;1109;-65
2021/05/31 00:18:40;;;;;;;3.85;2.20;;;;;;;;;;344915;28;1920;-62
2021/05/31 00:18:52;;;;;;;3.53;2.10;;;;;;;;;;345065;28;1109;-68
2021/05/31 00:19:05;;;;;;;3.95;2.40;;;;;;;;;;344976;28;1091;-66
2021/05/31 00:19:20;;;;;;;3.08;2.40;;;;;;;;;;344934;28;1146;-62
2021/05/31 00:19:33;;;;;;;4.00;2.28;;;;;;;;;;342813;28;63751;-65
2021/05/31 00:19:45;;;;;;;4.52;2.24;;;;;;;;;;344873;28;1089;-62
2021/05/31 00:19:57;;;;;;;3.38;2.28;;;;;;;;;;345130;28;1208;-68
2021/05/31 00:20:10;;;;;;;3.33;2.10;;;;;;;;;;344970;28;1087;-62
2021/05/31 00:20:23;;;;;;;2.90;2.15;;;;;;;;;;344469;28;17009;-63
2021/05/31 00:20:35;;;;;;;2.63;2.22;;;;;;;;;;344995;28;1082;-64
2021/05/31 00:20:48;;;;;;;3.40;2.20;;;;;;;;;;344957;28;1101;-62
2021/05/31 00:21:00;;;;;;;3.17;2.03;;;;;;;;;;345063;28;1094;-64
2021/05/31 00:21:12;;;;;;;3.28;2.15;;;;;;;;;;344957;28;1856;-63
2021/05/31 00:21:25;;;;;;;2.53;2.10;;;;;;;;;;344939;28;1078;-62
2021/05/31 00:21:37;;;;;;;2.70;2.20;;;;;;;;;;344979;28;1110;-62
2021/05/31 00:21:49;;;;;;;3.20;2.25;;;;;;;;;;344892;28;1277;-63
2021/05/31 00:22:02;;;;;;;3.67;2.30;;;;;;;;;;346057;28;1074;-62
2021/05/31 00:22:15;;;;;;;2.67;2.20;;;;;;;;;;346247;28;1256;-64
2021/05/31 00:22:27;;;;;;;3.13;2.20;;;;;;;;;;346471;28;1097;-62
2021/05/31 00:22:39;;;;;;;3.47;2.40;;;;;;;;;;346286;28;1042;-63
2021/05/31 00:22:51;;;;;;;3.00;2.22;;;;;;;;;;346413;28;1911;-62
2021/05/31 00:23:03;;;;;;;2.60;2.00;;;;;;;;;;346465;28;1066;-62
2021/05/31 00:23:16;;;;;;;2.94;2.12;;;;;;;;;;346400;28;1102;-62
2021/05/31 00:23:28;;;;;;;4.40;2.40;;;;;;;;;;346387;28;1171;-62
2021/05/31 00:23:40;;;;;;;4.45;2.42;;;;;;;;;;346292;28;1033;-64
2021/05/31 00:23:52;;;;;;;3.78;2.40;;;;;;;;;;345743;28;1629;-66
2021/05/31 00:24:05;;;;;;;4.07;2.30;;;;;;;;;;345564;28;1669;-62
2021/05/31 00:24:17;;;;;;;4.85;2.40;;;;;;;;;;346379;28;1135;-62
2021/05/31 00:24:30;;;;;;;4.43;2.33;;;;;;;;;;346405;28;1073;-64
2021/05/31 00:24:42;;;;;;;3.75;2.25;;;;;;;;;;346387;28;1113;-62
2021/05/31 00:24:54;;;;;;;3.10;2.28;;;;;;;;;;346440;28;1073;-64
2021/05/31 00:25:08;;;;;;;3.10;2.25;;;;;;;;;;346470;28;1046;-64
2021/05/31 00:25:20;;;;;;;2.85;2.25;;;;;;;;;;345839;28;17025;-62
2021/05/31 00:25:32;;;;;;;2.75;2.28;;;;;;;;;;346338;28;1176;-67
2021/05/31 00:25:45;;;;;;;2.80;2.45;;;;;;;;;;346412;28;1114;-66
2021/05/31 00:25:57;;;;;;;3.03;2.50;;;;;;;;;;346427;28;1125;-62
2021/05/31 00:26:10;;;;;;;3.58;2.40;;;;;;;;;;346370;28;1003;-62
2021/05/31 00:26:22;;;;;;;4.72;2.40;;;;;;;;;;346348;28;1130;-69
2021/05/31 00:26:35;;;;;;;4.50;2.40;;;;;;;;;;346392;28;1181;-63
2021/05/31 00:26:47;;;;;;;3.30;2.30;;;;;;;;;;344989;28;1344;-68
2021/05/31 00:26:59;;;;;;;3.05;2.38;;;;;;;;;;345079;28;1090;-66
2021/05/31 00:27:13;;;;;;;3.17;2.40;;;;;;;;;;345013;28;1090;-64
2021/05/31 00:27:25;;;;;;;3.65;2.40;;;;;;;;;;344949;28;1246;-63
2021/05/31 00:27:37;;;;;;;3.55;2.30;;;;;;;;;;344967;28;1098;-62
2021/05/31 00:27:49;;;;;;;3.17;2.20;;;;;;;;;;344939;28;1027;-68
2021/05/31 00:28:02;;;;;;;3.00;2.08;;;;;;;;;;344959;28;1074;-62
2021/05/31 00:28:14;;;;;;;3.20;2.17;;;;;;;;;;345129;28;1246;-66
2021/05/31 00:28:26;;;;;;;5.35;2.28;;;;;;;;;;344970;28;1007;-62
2021/05/31 00:28:38;;;;;;;5.22;2.20;;;;;;;;;;345066;28;1318;-62
2021/05/31 00:28:50;;;;;;;3.13;2.22;;;;;;;;;;345934;28;1213;-62
2021/05/31 00:29:03;;;;;;;3.42;2.20;;;;;;;;;;346441;28;982;-68
2021/05/31 00:29:16;;;;;;;3.22;2.30;;;;;;;;;;346316;28;1038;-63
2021/05/31 00:29:28;;;;;;;3.15;2.40;;;;;;;;;;346403;28;1100;-63
2021/05/31 00:29:40;;;;;;;3.03;2.20;;;;;;;;;;346300;28;1089;-65
2021/05/31 00:29:52;;;;;;;3.90;2.20;;;;;;;;;;345179;28;1070;-67
2021/05/31 00:30:06;;;;;;;3.72;2.50;;;;;;;;;;345037;28;1078;-64
2021/05/31 00:30:21;;;;;;;3.80;2.50;;;;;;;;;;344894;28;1197;-62
2021/05/31 00:30:34;;;;;;;3.00;2.40;;;;;;;;;;342876;28;63926;-68
2021/05/31 00:30:46;;;;;;;2.90;2.40;;;;;;;;;;344963;28;1228;-63
2021/05/31 00:30:58;;;;;;;3.70;2.40;;;;;;;;;;345042;28;1129;-62
2021/05/31 00:31:11;;;;;;;3.83;2.40;;;;;;;;;;344931;28;1117;-62
2021/05/31 00:31:23;;;;;;;3.40;2.50;;;;;;;;;;345044;28;1272;-62
2021/05/31 00:31:35;;;;;;;3.53;2.50;;;;;;;;;;344991;28;1093;-63
2021/05/31 00:31:47;;;;;;;3.83;2.40;;;;;;;;;;344996;28;1157;-64
2021/05/31 00:32:00;;;;;;;4.00;2.40;;;;;;;;;;346376;28;1074;-62
2021/05/31 00:32:12;;;;;;;3.60;2.33;;;;;;;;;;346284;28;1094;-63
2021/05/31 00:32:24;;;;;;;3.50;2.33;;;;;;;;;;346600;28;1057;-62
2021/05/31 00:32:37;;;;;;;2.97;2.20;;;;;;;;;;346389;28;994;-67
2021/05/31 00:32:49;;;;;;;3.42;2.25;;;;;;;;;;345148;28;1213;-62
2021/05/31 00:33:02;;;;;;;3.10;2.20;;;;;;;;;;344868;28;1216;-63
2021/05/31 00:33:14;;;;;;;3.15;2.40;;;;;;;;;;344796;28;1066;-62
2021/05/31 00:33:26;;;;;;;3.30;2.55;;;;;;;;;;344914;28;1081;-63
2021/05/31 00:33:38;;;;;;;4.18;2.70;;;;;;;;;;344790;28;1085;-68
2021/05/31 00:33:50;;;;;;;4.50;2.58;;;;;;;;;;345048;28;1150;-63
2021/05/31 00:34:03;;;;;;;5.00;2.50;;;;;;;;;;344856;28;983;-63
2021/05/31 00:34:15;;;;;;;4.05;2.45;;;;;;;;;;344804;28;1221;-62
2021/05/31 00:34:27;;;;;;;3.85;2.50;;;;;;;;;;344764;28;1740;-65
2021/05/31 00:34:39;;;;;;;5.07;2.58;;;;;;;;;;343597;28;1709;-62
2021/05/31 00:34:52;;;;;;;4.63;2.33;;;;;;;;;;345722;28;1050;-65
2021/05/31 00:35:05;;;;;;;4.65;2.35;;;;;;;;;;346381;28;1073;-63
2021/05/31 00:35:17;;;;;;;4.18;2.38;;;;;;;;;;346433;28;1094;-63
2021/05/31 00:35:30;;;;;;;3.53;2.30;;;;;;;;;;346380;28;1072;-66
2021/05/31 00:35:42;;;;;;;2.90;2.28;;;;;;;;;;346481;28;1025;-64
2021/05/31 00:35:54;;;;;;;2.58;2.33;;;;;;;;;;346243;28;1101;-62
2021/05/31 00:36:07;;;;;;;3.03;2.38;;;;;;;;;;346403;28;1076;-63
2021/05/31 00:36:19;;;;;;;3.72;2.40;;;;;;;;;;346347;28;1081;-66
2021/05/31 00:36:31;;;;;;;4.07;2.50;;;;;;;;;;346410;28;1101;-64
2021/05/31 00:36:43;;;;;;;3.13;2.35;;;;;;;;;;346330;28;1098;-62
2021/05/31 00:36:55;;;;;;;2.80;2.38;;;;;;;;;;346317;28;1067;-64
2021/05/31 00:37:07;;;;;;;3.42;2.30;;;;;;;;;;346346;28;1050;-62
2021/05/31 00:37:19;;;;;;;3.50;2.20;;;;;;;;;;346435;28;1172;-66
2021/05/31 00:37:31;;;;;;;3.60;2.28;;;;;;;;;;346270;28;1130;-62
2021/05/31 00:37:43;;;;;;;3.22;2.30;;;;;;;;;;346005;28;1262;-65
2021/05/31 00:37:56;;;;;;;3.83;2.38;;;;;;;;;;346456;28;1131;-65
2021/05/31 00:38:08;;;;;;;3.72;2.33;;;;;;;;;;346271;28;1161;-62
2021/05/31 00:38:20;;;;;;;2.97;2.30;;;;;;;;;;346355;28;1168;-62
2021/05/31 00:38:32;;;;;;;3.22;2.40;;;;;;;;;;346302;28;1201;-64
2021/05/31 00:38:44;;;;;;;3.40;2.60;;;;;;;;;;346388;28;1117;-62
2021/05/31 00:38:57;;;;;;;3.20;2.53;;;;;;;;;;346341;28;1070;-64
2021/05/31 00:39:09;;;;;;;4.00;2.45;;;;;;;;;;346377;28;1090;-62
2021/05/31 00:39:21;;;;;;;3.70;2.42;;;;;;;;;;346395;28;1183;-65
2021/05/31 00:39:33;;;;;;;4.07;2.35;;;;;;;;;;346446;28;1213;-64
2021/05/31 00:39:45;;;;;;;3.30;2.30;;;;;;;;;;346351;28;1057;-65
2021/05/31 00:39:57;;;;;;;3.55;2.13;;;;;;;;;;346277;28;1122;-66
2021/05/31 00:40:10;;;;;;;3.63;2.38;;;;;;;;;;346381;28;1106;-67
2021/05/31 00:40:23;;;;;;;3.38;2.33;;;;;;;;;;346286;28;1918;-66
2021/05/31 00:40:35;;;;;;;3.08;2.30;;;;;;;;;;346400;28;1180;-64
2021/05/31 00:40:47;;;;;;;2.80;2.35;;;;;;;;;;346365;28;1275;-62
2021/05/31 00:41:01;;;;;;;2.83;2.38;;;;;;;;;;346480;28;1278;-61
2021/05/31 00:41:13;;;;;;;3.65;2.42;;;;;;;;;;345711;28;17167;-62
2021/05/31 00:41:26;;;;;;;3.75;2.60;;;;;;;;;;346292;28;1049;-62
2021/05/31 00:41:38;;;;;;;3.33;2.60;;;;;;;;;;346285;28;1102;-65
2021/05/31 00:41:51;;;;;;;3.63;2.50;;;;;;;;;;346581;28;1086;-63
2021/05/31 00:42:03;;;;;;;3.50;2.60;;;;;;;;;;345850;28;16693;-66
2021/05/31 00:42:16;;;;;;;3.95;2.75;;;;;;;;;;346398;28;1209;-63
2021/05/31 00:42:28;;;;;;;3.72;2.50;;;;;;;;;;346259;28;1067;-66
2021/05/31 00:42:40;;;;;;;3.05;2.28;;;;;;;;;;346440;28;1081;-62
2021/05/31 00:42:52;;;;;;;3.22;2.10;;;;;;;;;;346169;28;1153;-63
2021/05/31 00:43:04;;;;;;;3.28;2.28;;;;;;;;;;345221;28;1305;-64
2021/05/31 00:43:16;;;;;;;3.15;2.38;;;;;;;;;;344898;28;1194;-63
2021/05/31 00:43:34;;;;;;;3.50;2.35;;;;;;;;;;344873;28;1352;-62
2021/05/31 00:43:46;;;;;;;3.58;2.30;;;;;;;;;;342750;28;63806;-66
2021/05/31 00:43:58;;;;;;;2.80;2.40;;;;;;;;;;344944;28;1135;-62
2021/05/31 00:44:10;;;;;;;3.60;2.50;;;;;;;;;;344785;28;1071;-62
2021/05/31 00:44:23;;;;;;;4.35;2.50;;;;;;;;;;344972;28;1300;-62
2021/05/31 00:44:35;;;;;;;4.90;2.50;;;;;;;;;;344866;28;1174;-62
2021/05/31 00:44:47;;;;;;;4.00;2.40;;;;;;;;;;344951;28;1208;-62
2021/05/31 00:45:00;;;;;;;3.83;2.30;;;;;;;;;;344873;28;1199;-65
2021/05/31 00:45:12;;;;;;;3.75;2.22;;;;;;;;;;345310;28;1586;-62
2021/05/31 00:45:25;;;;;;;3.65;2.33;;;;;;;;;;346168;28;1704;-62
2021/05/31 00:45:37;;;;;;;3.88;2.55;;;;;;;;;;346316;28;1105;-62
2021/05/31 00:45:49;;;;;;;3.55;2.50;;;;;;;;;;346416;28;1168;-64
2021/05/31 00:46:05;;;;;;;2.80;2.40;;;;;;;;;;346408;28;1094;-64
2021/05/31 00:46:18;;;;;;;3.10;2.40;;;;;;;;;;344121;28;62583;-65
2021/05/31 00:46:30;;;;;;;3.60;2.30;;;;;;;;;;346404;28;1085;-62
2021/05/31 00:46:43;;;;;;;3.03;2.20;;;;;;;;;;346474;28;1173;-62
2021/05/31 00:46:55;;;;;;;2.83;2.20;;;;;;;;;;346489;28;1246;-62
2021/05/31 00:47:07;;;;;;;2.90;2.40;;;;;;;;;;346417;28;1086;-63
2021/05/31 00:47:19;;;;;;;2.70;2.35;;;;;;;;;;346461;28;966;-66
2021/05/31 00:47:32;;;;;;;3.00;2.47;;;;;;;;;;345037;28;1175;-62
2021/05/31 00:47:44;;;;;;;3.18;2.48;;;;;;;;;;344916;28;1050;-62
2021/05/31 00:47:57;;;;;;;4.75;2.63;;;;;;;;;;344663;28;1145;-63
2021/05/31 00:48:09;;;;;;;6.13;2.67;;;;;;;;;;345162;28;993;-62
2021/05/31 00:48:23;;;;;;;4.97;2.53;;;;;;;;;;344868;28;1297;-62
2021/05/31 00:48:36;;;;;;;3.05;2.30;;;;;;;;;;344400;28;16638;-62
2021/05/31 00:48:48;;;;;;;4.03;2.47;;;;;;;;;;344861;28;1126;-63
2021/05/31 00:49:00;;;;;;;4.57;2.65;;;;;;;;;;344826;28;1054;-62
2021/05/31 00:49:16;;;;;;;4.13;2.60;;;;;;;;;;344950;28;1292;-63
2021/05/31 00:49:35;;;;;;;2.92;2.50;;;;;;;;;;342854;28;64030;-61
2021/05/31 00:49:47;;;;;;;3.70;2.30;;;;;;;;;;344178;28;63812;-62
2021/05/31 00:49:59;;;;;;;4.50;2.60;;;;;;;;;;346229;28;1075;-63
2021/05/31 00:50:12;;;;;;;3.97;2.60;;;;;;;;;;346384;28;1001;-65
2021/05/31 00:50:24;;;;;;;3.30;2.65;;;;;;;;;;346341;28;1094;-66
2021/05/31 00:50:36;;;;;;;3.38;2.70;;;;;;;;;;344884;28;1061;-62
2021/05/31 00:50:48;;;;;;;3.42;2.58;;;;;;;;;;344889;28;1272;-62
2021/05/31 00:51:02;;;;;;;4.03;2.40;;;;;;;;;;343586;28;1683;-62
2021/05/31 00:51:14;;;;;;;4.25;2.30;;;;;;;;;;343154;28;17119;-62
2021/05/31 00:51:27;;;;;;;4.68;2.38;;;;;;;;;;343660;28;1108;-62
2021/05/31 00:51:39;;;;;;;4.05;2.30;;;;;;;;;;343524;28;1930;-62
2021/05/31 00:51:51;;;;;;;2.88;2.20;;;;;;;;;;342350;28;1099;-62
2021/05/31 00:52:07;;;;;;;3.20;2.30;;;;;;;;;;342355;28;1091;-63
2021/05/31 00:52:20;;;;;;;3.03;2.38;;;;;;;;;;339769;28;63861;-62
2021/05/31 00:52:33;;;;;;;2.70;2.35;;;;;;;;;;340695;28;16783;-63
2021/05/31 00:52:45;;;;;;;3.33;2.50;;;;;;;;;;342264;28;946;-62
2021/05/31 00:52:57;;;;;;;4.28;2.60;;;;;;;;;;342348;28;1099;-62
2021/05/31 00:53:10;;;;;;;3.53;2.38;;;;;;;;;;343625;28;1087;-62
2021/05/31 00:53:22;;;;;;;2.58;2.20;;;;;;;;;;343572;28;1184;-64
2021/05/31 00:53:34;;;;;;;2.78;2.45;;;;;;;;;;343538;28;1264;-65
2021/05/31 00:53:46;;;;;;;4.50;2.60;;;;;;;;;;343602;28;1090;-62
2021/05/31 00:53:59;;;;;;;5.03;2.50;;;;;;;;;;343621;28;1011;-62
2021/05/31 00:54:12;;;;;;;4.72;2.35;;;;;;;;;;341528;28;14672;-62
2021/05/31 00:54:25;;;;;;;4.48;2.42;;;;;;;;;;342213;28;1135;-68
2021/05/31 00:54:37;;;;;;;4.18;2.53;;;;;;;;;;342301;28;1086;-66
2021/05/31 00:54:50;;;;;;;3.22;2.55;;;;;;;;;;342525;28;1070;-62
2021/05/31 00:55:02;;;;;;;3.00;2.58;;;;;;;;;;342633;28;1089;-62
2021/05/31 00:55:14;;;;;;;3.55;2.50;;;;;;;;;;341356;29;1130;-62
2021/05/31 00:55:27;;;;;;;4.00;2.63;;;;;;;;;;341238;29;1158;-66
2021/05/31 00:55:39;;;;;;;3.92;2.53;;;;;;;;;;341345;29;1154;-63
2021/05/31 00:55:51;;;;;;;3.80;2.47;;;;;;;;;;341312;28;1633;-63
2021/05/31 00:56:03;;;;;;;3.70;2.50;;;;;;;;;;343348;28;1647;-62
2021/05/31 00:56:16;;;;;;;4.03;2.55;;;;;;;;;;344716;28;1436;-62
2021/05/31 00:56:28;;;;;;;4.10;2.35;;;;;;;;;;345023;28;971;-65
2021/05/31 00:56:41;;;;;;;3.72;2.42;;;;;;;;;;345178;28;1063;-63
2021/05/31 00:56:53;;;;;;;2.95;2.47;;;;;;;;;;345234;28;1023;-62
2021/05/31 00:57:06;;;;;;;3.20;2.40;;;;;;;;;;345248;28;1002;-62
2021/05/31 00:57:18;;;;;;;3.05;2.40;;;;;;;;;;346099;28;1078;-64
2021/05/31 00:57:30;;;;;;;2.95;2.50;;;;;;;;;;346842;28;1073;-67
2021/05/31 00:57:42;;;;;;;3.08;2.40;;;;;;;;;;346599;28;1074;-66
2021/05/31 00:57:55;;;;;;;2.78;2.38;;;;;;;;;;346576;28;1130;-66
2021/05/31 00:58:07;;;;;;;2.50;2.22;;;;;;;;;;346554;28;1260;-70
2021/05/31 00:58:19;;;;;;;2.45;2.25;;;;;;;;;;346608;28;1849;-62
2021/05/31 00:58:31;;;;;;;3.00;2.30;;;;;;;;;;346579;28;1209;-63
2021/05/31 00:58:43;;;;;;;4.12;2.40;;;;;;;;;;346602;28;1124;-63
2021/05/31 00:58:55;;;;;;;4.32;2.50;;;;;;;;;;345310;28;1221;-62
2021/05/31 00:59:08;;;;;;;4.22;2.58;;;;;;;;;;345050;28;1020;-62
2021/05/31 00:59:21;;;;;;;4.60;2.58;;;;;;;;;;345231;28;1182;-62
2021/05/31 00:59:33;;;;;;;5.03;2.70;;;;;;;;;;345274;28;1091;-65
2021/05/31 00:59:45;;;;;;;5.35;2.70;;;;;;;;;;343750;28;1051;-65
2021/05/31 01:00:00;;;;;;;5.95;2.50;;;;;;;;;;342625;28;40370;-69
2021/05/31 01:00:12;;;;;;;7.40;2.47;;;;;;;;;;343887;28;1091;-62
2021/05/31 01:00:25;;;;;;;7.40;2.55;;;;;;;;;;343749;28;1131;-62
2021/05/31 01:00:38;;;;;;;5.90;2.58;;;;;;;;;;343760;28;1023;-62
2021/05/31 01:00:50;;;;;;;4.22;2.63;;;;;;;;;;343911;28;1086;-63
2021/05/31 01:01:03;;;;;;;4.70;2.65;;;;;;;;;;345207;28;1145;-62
2021/05/31 01:01:16;;;;;;;4.63;2.60;;;;;;;;;;345082;28;1149;-62
2021/05/31 01:01:28;;;;;;;3.45;2.47;;;;;;;;;;345131;28;1063;-61
2021/05/31 01:01:40;;;;;;;3.50;2.47;;;;;;;;;;345193;28;1090;-62
2021/05/31 01:01:52;;;;;;;3.38;2.40;;;;;;;;;;346533;28;1977;-62
2021/05/31 01:02:04;;;;;;;3.92;2.55;;;;;;;;;;346541;28;1089;-62
2021/05/31 01:02:17;;;;;;;4.07;2.45;;;;;;;;;;346864;28;1134;-62
2021/05/31 01:02:29;;;;;;;4.10;2.45;;;;;;;;;;346619;28;1087;-64
2021/05/31 01:02:41;;;;;;;4.80;2.47;;;;;;;;;;346431;28;2382;-63
2021/05/31 01:02:53;;;;;;;4.75;2.60;;;;;;;;;;346496;28;1271;-62
2021/05/31 01:03:05;;;;;;;7.42;2.60;;;;;;;;;;346642;28;1037;-62
2021/05/31 01:03:17;;;;;;;6.65;2.70;;;;;;;;;;346574;28;1091;-62
2021/05/31 01:03:31;;;;;;;5.55;2.67;;;;;;;;;;345493;28;1886;-64
2021/05/31 01:03:43;;;;;;;4.20;2.60;;;;;;;;;;345063;28;1173;-65
2021/05/31 01:03:55;;;;;;;3.58;2.58;;;;;;;;;;345118;28;1059;-62
2021/05/31 01:04:07;;;;;;;4.50;2.42;;;;;;;;;;345366;28;1007;-63
2021/05/31 01:04:20;;;;;;;4.13;2.35;;;;;;;;;;345225;28;978;-62
2021/05/31 01:04:32;;;;;;;4.07;2.50;;;;;;;;;;345098;28;980;-62
2021/05/31 01:04:47;;;;;;;4.32;2.70;;;;;;;;;;343883;28;40145;-62
2021/05/31 01:04:59;;;;;;;4.10;2.55;;;;;;;;;;345321;28;1087;-63
2021/05/31 01:05:11;;;;;;;5.20;2.65;;;;;;;;;;345190;28;1395;-62
2021/05/31 01:05:24;;;;;;;4.70;2.80;;;;;;;;;;345057;28;1267;-62
2021/05/31 01:05:36;;;;;;;4.10;2.60;;;;;;;;;;346483;28;978;-62
2021/05/31 01:05:49;;;;;;;4.78;2.30;;;;;;;;;;346545;28;1464;-64
2021/05/31 01:06:04;;;;;;;6.55;2.45;;;;;;;;;;346746;28;1205;-63
2021/05/31 01:06:19;;;;;;;5.18;2.67;;;;;;;;;;345381;28;39956;-62
2021/05/31 01:06:33;;;;;;;3.50;2.50;;;;;;;;;;345523;28;17125;-62
2021/05/31 01:07:05;;;;;;;4.03;2.60;;;;;;;;;;342455;28;39730;-68
2021/05/31 01:07:22;;;;;;;4.75;2.40;;;;;;;;;;341700;28;61187;-66
2021/05/31 01:07:44;;;;;;;4.90;2.50;;;;;;;;;;341570;28;62599;-62
2021/05/31 01:07:59;;;;;;;5.60;2.40;;;;;;;;;;341733;28;63824;-62
2021/05/31 01:08:14;;;;;;;5.45;2.50;;;;;;;;;;341862;28;62715;-63
2021/05/31 01:08:37;;;;;;;3.42;2.30;;;;;;;;;;343409;28;17101;-62
2021/05/31 01:08:55;;;;;;;4.47;2.60;;;;;;;;;;343301;28;62626;-61
2021/05/31 01:09:09;;;;;;;4.66;2.60;;;;;;;;;;342539;28;85971;-62
2021/05/31 01:09:28;;;;;;;4.18;2.50;;;;;;;;;;345409;28;1098;-63
2021/05/31 01:09:46;;;;;;;3.30;2.50;;;;;;;;;;343088;28;63123;-62
2021/05/31 01:09:59;;;;;;;3.58;2.34;;;;;;;;;;342436;28;87197;-62
2021/05/31 01:10:14;;;;;;;3.42;2.30;;;;;;;;;;345301;28;2036;-66
2021/05/31 01:10:29;;;;;;;3.00;2.40;;;;;;;;;;343866;28;41140;-64
2021/05/31 01:10:46;;;;;;;3.10;2.35;;;;;;;;;;343993;28;39645;-67
2021/05/31 01:11:01;;;;;;;3.90;2.50;;;;;;;;;;343213;28;62982;-62
2021/05/31 01:11:16;;;;;;;4.47;2.50;;;;;;;;;;343265;28;17749;-70
2021/05/31 01:11:47;;;;;;;4.13;2.60;;;;;;;;;;341883;28;63939;-62
2021/05/31 01:12:05;;;;;;;4.75;2.50;;;;;;;;;;341706;28;63326;-62
2021/05/31 01:12:17;;;;;;;3.40;2.47;;;;;;;;;;341686;28;63572;-65
2021/05/31 01:12:35;;;;;;;3.60;2.58;;;;;;;;;;343984;28;1180;-62
2021/05/31 01:12:53;;;;;;;3.05;2.50;;;;;;;;;;341830;28;63661;-63
2021/05/31 01:13:09;;;;;;;3.40;2.40;;;;;;;;;;341854;28;62461;-65
2021/05/31 01:13:37;;;;;;;4.53;2.60;;;;;;;;;;343095;28;63794;-65
2021/05/31 01:13:49;;;;;;;4.60;2.67;;;;;;;;;;343158;28;63206;-63
2021/05/31 01:14:08;;;;;;;3.47;2.70;;;;;;;;;;345266;28;1168;-65
2021/05/31 01:14:23;;;;;;;2.83;2.40;;;;;;;;;;343096;28;64561;-62
2021/05/31 01:14:36;;;;;;;2.80;2.50;;;;;;;;;;343869;28;39783;-65
2021/05/31 01:15:02;;;;;;;2.70;2.50;;;;;;;;;;345427;28;1141;-64
2021/05/31 01:15:17;;;;;;;3.35;2.55;;;;;;;;;;343136;28;62597;-62
2021/05/31 01:15:34;;;;;;;3.20;2.55;;;;;;;;;;344031;28;39717;-62
2021/05/31 01:15:47;;;;;;;3.38;2.60;;;;;;;;;;343190;28;62695;-63
2021/05/31 01:16:04;;;;;;;4.35;2.67;;;;;;;;;;345099;28;1094;-62
2021/05/31 01:16:19;;;;;;;4.93;2.55;;;;;;;;;;343255;28;63421;-63
2021/05/31 01:16:38;;;;;;;4.00;2.33;;;;;;;;;;343948;28;40880;-62
2021/05/31 01:16:51;;;;;;;3.28;2.38;;;;;;;;;;343009;28;63543;-62
2021/05/31 01:17:03;;;;;;;3.58;2.60;;;;;;;;;;345177;28;1678;-63
2021/05/31 01:17:23;;;;;;;3.60;2.80;;;;;;;;;;345966;28;1693;-62
2021/05/31 01:17:41;;;;;;;4.20;2.65;;;;;;;;;;343185;28;62337;-62
2021/05/31 01:18:32;;;;;;;4.13;2.60;;;;;;;;;;343041;28;63510;-63
2021/05/31 01:18:45;;;;;;;3.63;2.78;;;;;;;;;;338961;28;64413;-62
2021/05/31 01:18:59;;;;;;;4.05;2.67;;;;;;;;;;341129;29;1107;-61
2021/05/31 01:19:24;;;;;;;4.10;2.40;;;;;;;;;;340426;29;18124;-64
2021/05/31 01:19:48;;;;;;;3.70;2.60;;;;;;;;;;338925;29;63530;-63
2021/05/31 01:20:03;;;;;;;4.20;2.60;;;;;;;;;;339023;29;64414;-62
2021/05/31 01:20:41;;;;;;;4.70;2.70;;;;;;;;;;339888;29;40158;-69
2021/05/31 01:21:10;;;;;;;4.13;2.50;;;;;;;;;;335861;29;63681;-62
2021/05/31 01:21:31;;;;;;;3.80;2.60;;;;;;;;;;337884;29;64549;-68
2021/05/31 01:21:59;;;;;;;2.92;2.33;;;;;;;;;;337613;29;64772;-63
2021/05/31 01:22:12;;;;;;;3.17;2.58;;;;;;;;;;337696;29;64580;-63
2021/05/31 01:22:29;;;;;;;3.50;2.67;;;;;;;;;;339670;29;1154;-61
2021/05/31 01:22:43;;;;;;;2.95;2.45;;;;;;;;;;337666;29;65191;-64
2021/05/31 01:22:55;;;;;;;2.72;2.40;;;;;;;;;;339904;29;1135;-62